sensor_id;sensor_type;location;lat;lon;timestamp;P1;durP1;ratioP1;P2;durP2;ratioP2
5147;SDS011;2592;48.140;7.614;2023-02-24T00:01:46;37.27;;;25.60;;
5147;SDS011;2592;48.140;7.614;2023-02-24T00:04:15;44.83;;;29.63;;
5147;SDS011;2592;48.140;7.614;2023-02-24T00:06:42;44.17;;;28.60;;
5147;SDS011;2592;48.140;7.614;2023-02-24T00:09:09;45.03;;;27.60;;
5147;SDS011;2592;48.140;7.614;2023-02-24T00:11:37;42.00;;;27.97;;
5147;SDS011;2592;48.140;7.614;2023-02-24T00:14:05;42.63;;;27.50;;
5147;SDS011;2592;48.140;7.614;2023-02-24T00:16:32;40.37;;;27.57;;
5147;SDS011;2592;48.140;7.614;2023-02-24T00:18:59;43.83;;;29.43;;
5147;SDS011;2592;48.140;7.614;2023-02-24T00:21:26;49.13;;;32.23;;
5147;SDS011;2592;48.140;7.614;2023-02-24T00:23:53;48.63;;;32.97;;
5147;SDS011;2592;48.140;7.614;2023-02-24T00:26:19;51.53;;;34.23;;
5147;SDS011;2592;48.140;7.614;2023-02-24T00:28:46;37.23;;;26.03;;
5147;SDS011;2592;48.140;7.614;2023-02-24T00:31:15;44.37;;;29.77;;
5147;SDS011;2592;48.140;7.614;2023-02-24T00:33:42;45.13;;;30.17;;
5147;SDS011;2592;48.140;7.614;2023-02-24T00:36:10;50.90;;;30.57;;
5147;SDS011;2592;48.140;7.614;2023-02-24T00:38:37;44.63;;;30.50;;
5147;SDS011;2592;48.140;7.614;2023-02-24T00:41:07;44.60;;;29.00;;
5147;SDS011;2592;48.140;7.614;2023-02-24T00:43:36;38.40;;;25.47;;
5147;SDS011;2592;48.140;7.614;2023-02-24T00:46:03;44.47;;;28.20;;
5147;SDS011;2592;48.140;7.614;2023-02-24T00:48:36;34.90;;;25.43;;
5147;SDS011;2592;48.140;7.614;2023-02-24T00:51:05;31.30;;;24.37;;
5147;SDS011;2592;48.140;7.614;2023-02-24T00:53:32;38.40;;;28.50;;
5147;SDS011;2592;48.140;7.614;2023-02-24T00:55:58;34.20;;;26.03;;
5147;SDS011;2592;48.140;7.614;2023-02-24T00:58:26;31.23;;;25.13;;
5147;SDS011;2592;48.140;7.614;2023-02-24T01:00:54;29.40;;;23.43;;
5147;SDS011;2592;48.140;7.614;2023-02-24T01:03:20;32.10;;;24.03;;
5147;SDS011;2592;48.140;7.614;2023-02-24T01:05:48;41.20;;;27.67;;
5147;SDS011;2592;48.140;7.614;2023-02-24T01:08:15;47.53;;;31.53;;
5147;SDS011;2592;48.140;7.614;2023-02-24T01:10:47;45.87;;;29.33;;
5147;SDS011;2592;48.140;7.614;2023-02-24T01:13:39;51.17;;;31.57;;
5147;SDS011;2592;48.140;7.614;2023-02-24T01:16:04;54.37;;;34.30;;
5147;SDS011;2592;48.140;7.614;2023-02-24T01:18:31;55.80;;;33.67;;
5147;SDS011;2592;48.140;7.614;2023-02-24T01:20:59;54.47;;;32.27;;
5147;SDS011;2592;48.140;7.614;2023-02-24T01:23:25;43.07;;;30.40;;
5147;SDS011;2592;48.140;7.614;2023-02-24T01:25:52;40.93;;;28.87;;
5147;SDS011;2592;48.140;7.614;2023-02-24T01:28:22;55.73;;;32.73;;
5147;SDS011;2592;48.140;7.614;2023-02-24T01:30:48;47.40;;;30.03;;
5147;SDS011;2592;48.140;7.614;2023-02-24T01:33:15;48.47;;;28.57;;
5147;SDS011;2592;48.140;7.614;2023-02-24T01:35:41;51.03;;;29.33;;
5147;SDS011;2592;48.140;7.614;2023-02-24T01:38:09;48.13;;;30.40;;
5147;SDS011;2592;48.140;7.614;2023-02-24T01:40:35;41.70;;;28.10;;
5147;SDS011;2592;48.140;7.614;2023-02-24T01:43:02;42.10;;;28.70;;
5147;SDS011;2592;48.140;7.614;2023-02-24T01:45:33;48.37;;;31.20;;
5147;SDS011;2592;48.140;7.614;2023-02-24T01:48:01;45.60;;;30.40;;
5147;SDS011;2592;48.140;7.614;2023-02-24T01:50:29;52.03;;;32.10;;
5147;SDS011;2592;48.140;7.614;2023-02-24T01:52:57;57.30;;;32.83;;
5147;SDS011;2592;48.140;7.614;2023-02-24T01:55:27;51.13;;;31.57;;
5147;SDS011;2592;48.140;7.614;2023-02-24T01:57:56;51.00;;;31.70;;
5147;SDS011;2592;48.140;7.614;2023-02-24T02:00:23;62.07;;;34.27;;
5147;SDS011;2592;48.140;7.614;2023-02-24T02:03:07;58.30;;;33.57;;
5147;SDS011;2592;48.140;7.614;2023-02-24T02:05:34;63.63;;;36.43;;
5147;SDS011;2592;48.140;7.614;2023-02-24T02:08:03;56.27;;;33.60;;
5147;SDS011;2592;48.140;7.614;2023-02-24T02:10:31;63.60;;;37.00;;
5147;SDS011;2592;48.140;7.614;2023-02-24T02:12:58;61.00;;;33.40;;
5147;SDS011;2592;48.140;7.614;2023-02-24T02:15:28;68.90;;;35.30;;
5147;SDS011;2592;48.140;7.614;2023-02-24T02:17:58;70.23;;;35.47;;
5147;SDS011;2592;48.140;7.614;2023-02-24T02:26:17;59.40;;;33.17;;
5147;SDS011;2592;48.140;7.614;2023-02-24T02:28:53;53.77;;;32.63;;
5147;SDS011;2592;48.140;7.614;2023-02-24T02:34:19;60.23;;;31.50;;
5147;SDS011;2592;48.140;7.614;2023-02-24T02:36:53;67.60;;;33.77;;
5147;SDS011;2592;48.140;7.614;2023-02-24T02:39:23;51.10;;;30.90;;
5147;SDS011;2592;48.140;7.614;2023-02-24T02:41:51;45.83;;;29.37;;
5147;SDS011;2592;48.140;7.614;2023-02-24T02:44:21;54.10;;;31.47;;
5147;SDS011;2592;48.140;7.614;2023-02-24T02:46:51;46.87;;;29.27;;
5147;SDS011;2592;48.140;7.614;2023-02-24T02:49:22;54.23;;;30.30;;
5147;SDS011;2592;48.140;7.614;2023-02-24T02:51:54;52.20;;;30.40;;
5147;SDS011;2592;48.140;7.614;2023-02-24T02:54:25;56.33;;;29.93;;
5147;SDS011;2592;48.140;7.614;2023-02-24T02:56:53;56.00;;;32.50;;
5147;SDS011;2592;48.140;7.614;2023-02-24T02:59:23;57.00;;;32.10;;
5147;SDS011;2592;48.140;7.614;2023-02-24T03:01:52;59.43;;;32.83;;
5147;SDS011;2592;48.140;7.614;2023-02-24T03:04:26;59.60;;;35.53;;
5147;SDS011;2592;48.140;7.614;2023-02-24T03:06:55;52.13;;;33.10;;
5147;SDS011;2592;48.140;7.614;2023-02-24T03:09:23;57.80;;;33.03;;
5147;SDS011;2592;48.140;7.614;2023-02-24T03:11:51;56.27;;;34.40;;
5147;SDS011;2592;48.140;7.614;2023-02-24T03:14:24;51.33;;;29.90;;
5147;SDS011;2592;48.140;7.614;2023-02-24T03:16:52;45.83;;;28.60;;
5147;SDS011;2592;48.140;7.614;2023-02-24T03:19:20;45.27;;;31.10;;
5147;SDS011;2592;48.140;7.614;2023-02-24T03:21:54;45.03;;;29.07;;
5147;SDS011;2592;48.140;7.614;2023-02-24T03:24:22;48.27;;;30.63;;
5147;SDS011;2592;48.140;7.614;2023-02-24T03:26:49;43.87;;;31.27;;
5147;SDS011;2592;48.140;7.614;2023-02-24T03:29:18;39.53;;;28.57;;
5147;SDS011;2592;48.140;7.614;2023-02-24T03:31:48;39.23;;;27.90;;
5147;SDS011;2592;48.140;7.614;2023-02-24T03:34:19;39.70;;;27.33;;
5147;SDS011;2592;48.140;7.614;2023-02-24T03:36:47;36.37;;;27.33;;
5147;SDS011;2592;48.140;7.614;2023-02-24T03:39:16;35.50;;;26.50;;
5147;SDS011;2592;48.140;7.614;2023-02-24T03:41:43;39.53;;;27.53;;
5147;SDS011;2592;48.140;7.614;2023-02-24T03:44:11;36.83;;;26.33;;
5147;SDS011;2592;48.140;7.614;2023-02-24T03:46:38;239.67;;;182.37;;
5147;SDS011;2592;48.140;7.614;2023-02-24T03:49:07;32.43;;;25.93;;
5147;SDS011;2592;48.140;7.614;2023-02-24T03:51:41;38.07;;;26.93;;
5147;SDS011;2592;48.140;7.614;2023-02-24T03:54:11;36.77;;;27.17;;
5147;SDS011;2592;48.140;7.614;2023-02-24T03:56:46;39.03;;;27.83;;
5147;SDS011;2592;48.140;7.614;2023-02-24T03:59:16;35.87;;;27.90;;
5147;SDS011;2592;48.140;7.614;2023-02-24T04:01:49;37.40;;;27.43;;
5147;SDS011;2592;48.140;7.614;2023-02-24T04:04:24;35.97;;;26.10;;
5147;SDS011;2592;48.140;7.614;2023-02-24T04:06:53;36.70;;;27.37;;
5147;SDS011;2592;48.140;7.614;2023-02-24T04:09:23;40.17;;;29.30;;
5147;SDS011;2592;48.140;7.614;2023-02-24T04:11:54;35.93;;;26.50;;
5147;SDS011;2592;48.140;7.614;2023-02-24T04:14:23;33.33;;;25.90;;
5147;SDS011;2592;48.140;7.614;2023-02-24T04:16:54;34.97;;;25.70;;
5147;SDS011;2592;48.140;7.614;2023-02-24T04:19:25;35.87;;;26.90;;
5147;SDS011;2592;48.140;7.614;2023-02-24T04:21:53;37.73;;;26.93;;
5147;SDS011;2592;48.140;7.614;2023-02-24T04:24:21;36.90;;;26.10;;
5147;SDS011;2592;48.140;7.614;2023-02-24T04:26:48;36.53;;;26.70;;
5147;SDS011;2592;48.140;7.614;2023-02-24T04:29:18;33.47;;;24.13;;
5147;SDS011;2592;48.140;7.614;2023-02-24T04:31:48;37.80;;;26.00;;
5147;SDS011;2592;48.140;7.614;2023-02-24T04:34:15;35.30;;;25.57;;
5147;SDS011;2592;48.140;7.614;2023-02-24T04:36:44;50.60;;;30.47;;
5147;SDS011;2592;48.140;7.614;2023-02-24T04:39:13;50.10;;;30.97;;
5147;SDS011;2592;48.140;7.614;2023-02-24T04:41:42;64.30;;;34.73;;
5147;SDS011;2592;48.140;7.614;2023-02-24T04:44:09;54.37;;;32.00;;
5147;SDS011;2592;48.140;7.614;2023-02-24T04:46:37;57.23;;;35.97;;
5147;SDS011;2592;48.140;7.614;2023-02-24T04:49:03;64.90;;;36.67;;
5147;SDS011;2592;48.140;7.614;2023-02-24T04:51:30;74.83;;;38.37;;
5147;SDS011;2592;48.140;7.614;2023-02-24T04:53:58;60.33;;;32.17;;
5147;SDS011;2592;48.140;7.614;2023-02-24T04:56:24;66.60;;;34.40;;
5147;SDS011;2592;48.140;7.614;2023-02-24T04:58:50;65.03;;;35.63;;
5147;SDS011;2592;48.140;7.614;2023-02-24T05:01:17;61.00;;;35.27;;
5147;SDS011;2592;48.140;7.614;2023-02-24T05:03:44;50.63;;;32.40;;
5147;SDS011;2592;48.140;7.614;2023-02-24T05:06:12;66.70;;;36.93;;
5147;SDS011;2592;48.140;7.614;2023-02-24T05:08:40;77.03;;;39.10;;
5147;SDS011;2592;48.140;7.614;2023-02-24T05:11:10;68.67;;;36.40;;
5147;SDS011;2592;48.140;7.614;2023-02-24T05:13:40;66.30;;;36.27;;
5147;SDS011;2592;48.140;7.614;2023-02-24T05:16:10;62.50;;;35.93;;
5147;SDS011;2592;48.140;7.614;2023-02-24T05:18:37;68.00;;;37.13;;
5147;SDS011;2592;48.140;7.614;2023-02-24T05:21:06;81.20;;;44.20;;
5147;SDS011;2592;48.140;7.614;2023-02-24T05:23:50;77.97;;;38.50;;
5147;SDS011;2592;48.140;7.614;2023-02-24T05:26:18;69.17;;;37.60;;
5147;SDS011;2592;48.140;7.614;2023-02-24T05:28:45;64.43;;;35.53;;
5147;SDS011;2592;48.140;7.614;2023-02-24T05:31:14;94.83;;;37.70;;
5147;SDS011;2592;48.140;7.614;2023-02-24T05:33:42;71.10;;;35.43;;
5147;SDS011;2592;48.140;7.614;2023-02-24T05:36:11;82.83;;;40.13;;
5147;SDS011;2592;48.140;7.614;2023-02-24T05:38:39;77.07;;;38.67;;
5147;SDS011;2592;48.140;7.614;2023-02-24T05:41:08;75.77;;;41.60;;
5147;SDS011;2592;48.140;7.614;2023-02-24T05:43:40;72.70;;;38.77;;
5147;SDS011;2592;48.140;7.614;2023-02-24T05:46:08;65.03;;;35.63;;
5147;SDS011;2592;48.140;7.614;2023-02-24T05:48:37;72.30;;;38.13;;
5147;SDS011;2592;48.140;7.614;2023-02-24T05:51:03;78.47;;;36.67;;
5147;SDS011;2592;48.140;7.614;2023-02-24T05:53:33;70.07;;;37.87;;
5147;SDS011;2592;48.140;7.614;2023-02-24T05:56:00;80.73;;;38.10;;
5147;SDS011;2592;48.140;7.614;2023-02-24T05:58:28;77.03;;;38.77;;
5147;SDS011;2592;48.140;7.614;2023-02-24T06:00:56;90.20;;;39.30;;
5147;SDS011;2592;48.140;7.614;2023-02-24T06:03:29;76.23;;;35.40;;
5147;SDS011;2592;48.140;7.614;2023-02-24T06:05:59;81.37;;;37.80;;
5147;SDS011;2592;48.140;7.614;2023-02-24T06:08:29;77.27;;;36.87;;
5147;SDS011;2592;48.140;7.614;2023-02-24T06:11:07;121.73;;;37.77;;
5147;SDS011;2592;48.140;7.614;2023-02-24T06:13:34;79.07;;;35.60;;
5147;SDS011;2592;48.140;7.614;2023-02-24T06:16:00;81.03;;;37.80;;
5147;SDS011;2592;48.140;7.614;2023-02-24T06:18:27;89.60;;;41.30;;
5147;SDS011;2592;48.140;7.614;2023-02-24T06:20:53;82.27;;;41.27;;
5147;SDS011;2592;48.140;7.614;2023-02-24T06:23:20;90.93;;;40.13;;
5147;SDS011;2592;48.140;7.614;2023-02-24T06:25:46;90.47;;;40.17;;
5147;SDS011;2592;48.140;7.614;2023-02-24T06:28:14;98.87;;;40.57;;
5147;SDS011;2592;48.140;7.614;2023-02-24T06:30:41;152.10;;;40.83;;
5147;SDS011;2592;48.140;7.614;2023-02-24T06:33:07;89.87;;;38.60;;
5147;SDS011;2592;48.140;7.614;2023-02-24T06:35:34;87.03;;;38.93;;
5147;SDS011;2592;48.140;7.614;2023-02-24T06:38:02;88.80;;;38.03;;
5147;SDS011;2592;48.140;7.614;2023-02-24T06:40:29;95.70;;;38.23;;
5147;SDS011;2592;48.140;7.614;2023-02-24T06:42:55;105.57;;;41.37;;
5147;SDS011;2592;48.140;7.614;2023-02-24T06:45:23;92.37;;;39.00;;
5147;SDS011;2592;48.140;7.614;2023-02-24T06:47:50;89.47;;;38.30;;
5147;SDS011;2592;48.140;7.614;2023-02-24T06:50:17;81.00;;;37.33;;
5147;SDS011;2592;48.140;7.614;2023-02-24T06:52:44;95.70;;;40.70;;
5147;SDS011;2592;48.140;7.614;2023-02-24T06:55:10;77.43;;;38.20;;
5147;SDS011;2592;48.140;7.614;2023-02-24T06:57:50;84.10;;;38.73;;
5147;SDS011;2592;48.140;7.614;2023-02-24T07:00:17;88.13;;;38.70;;
5147;SDS011;2592;48.140;7.614;2023-02-24T07:02:50;83.47;;;39.60;;
5147;SDS011;2592;48.140;7.614;2023-02-24T07:05:16;84.40;;;41.10;;
5147;SDS011;2592;48.140;7.614;2023-02-24T07:07:43;87.67;;;38.40;;
5147;SDS011;2592;48.140;7.614;2023-02-24T07:10:10;77.70;;;39.43;;
5147;SDS011;2592;48.140;7.614;2023-02-24T07:12:37;74.63;;;41.10;;
5147;SDS011;2592;48.140;7.614;2023-02-24T07:15:05;89.90;;;40.10;;
5147;SDS011;2592;48.140;7.614;2023-02-24T07:17:32;82.13;;;39.47;;
5147;SDS011;2592;48.140;7.614;2023-02-24T07:20:00;81.63;;;38.07;;
5147;SDS011;2592;48.140;7.614;2023-02-24T07:22:35;86.93;;;38.53;;
5147;SDS011;2592;48.140;7.614;2023-02-24T07:25:02;89.93;;;40.23;;
5147;SDS011;2592;48.140;7.614;2023-02-24T07:27:28;74.83;;;40.20;;
5147;SDS011;2592;48.140;7.614;2023-02-24T07:29:55;98.47;;;41.20;;
5147;SDS011;2592;48.140;7.614;2023-02-24T07:32:23;80.93;;;39.40;;
5147;SDS011;2592;48.140;7.614;2023-02-24T07:34:49;95.50;;;43.20;;
5147;SDS011;2592;48.140;7.614;2023-02-24T07:37:18;81.97;;;41.57;;
5147;SDS011;2592;48.140;7.614;2023-02-24T07:39:45;82.77;;;40.23;;
5147;SDS011;2592;48.140;7.614;2023-02-24T07:42:11;88.80;;;41.30;;
5147;SDS011;2592;48.140;7.614;2023-02-24T07:44:38;84.77;;;42.37;;
5147;SDS011;2592;48.140;7.614;2023-02-24T07:47:04;85.23;;;39.87;;
5147;SDS011;2592;48.140;7.614;2023-02-24T07:49:32;93.00;;;42.43;;
5147;SDS011;2592;48.140;7.614;2023-02-24T07:51:59;90.57;;;39.80;;
5147;SDS011;2592;48.140;7.614;2023-02-24T07:54:27;116.77;;;41.20;;
5147;SDS011;2592;48.140;7.614;2023-02-24T07:56:54;97.70;;;39.80;;
5147;SDS011;2592;48.140;7.614;2023-02-24T07:59:25;107.30;;;42.47;;
5147;SDS011;2592;48.140;7.614;2023-02-24T08:01:51;114.27;;;42.40;;
5147;SDS011;2592;48.140;7.614;2023-02-24T08:04:20;92.63;;;44.80;;
5147;SDS011;2592;48.140;7.614;2023-02-24T08:06:47;89.40;;;42.13;;
5147;SDS011;2592;48.140;7.614;2023-02-24T08:09:20;124.40;;;45.50;;
5147;SDS011;2592;48.140;7.614;2023-02-24T08:12:08;109.27;;;44.47;;
5147;SDS011;2592;48.140;7.614;2023-02-24T08:14:35;94.10;;;44.07;;
5147;SDS011;2592;48.140;7.614;2023-02-24T08:17:08;99.37;;;45.70;;
5147;SDS011;2592;48.140;7.614;2023-02-24T08:19:35;98.33;;;44.03;;
5147;SDS011;2592;48.140;7.614;2023-02-24T08:22:05;94.90;;;44.03;;
5147;SDS011;2592;48.140;7.614;2023-02-24T08:24:43;116.67;;;51.17;;
5147;SDS011;2592;48.140;7.614;2023-02-24T08:27:11;110.37;;;48.63;;
5147;SDS011;2592;48.140;7.614;2023-02-24T08:29:37;100.03;;;44.30;;
5147;SDS011;2592;48.140;7.614;2023-02-24T08:32:21;93.70;;;45.27;;
5147;SDS011;2592;48.140;7.614;2023-02-24T08:34:48;102.63;;;41.97;;
5147;SDS011;2592;48.140;7.614;2023-02-24T08:37:15;92.00;;;45.43;;
5147;SDS011;2592;48.140;7.614;2023-02-24T08:39:41;96.57;;;43.30;;
5147;SDS011;2592;48.140;7.614;2023-02-24T08:42:07;92.60;;;42.73;;
5147;SDS011;2592;48.140;7.614;2023-02-24T08:44:39;96.57;;;42.93;;
5147;SDS011;2592;48.140;7.614;2023-02-24T08:47:06;106.83;;;44.10;;
5147;SDS011;2592;48.140;7.614;2023-02-24T08:49:34;87.37;;;41.63;;
5147;SDS011;2592;48.140;7.614;2023-02-24T08:52:03;97.07;;;43.97;;
5147;SDS011;2592;48.140;7.614;2023-02-24T08:54:31;97.67;;;46.17;;
5147;SDS011;2592;48.140;7.614;2023-02-24T08:56:58;104.33;;;45.60;;
5147;SDS011;2592;48.140;7.614;2023-02-24T08:59:32;81.63;;;40.40;;
5147;SDS011;2592;48.140;7.614;2023-02-24T09:02:15;79.33;;;36.87;;
5147;SDS011;2592;48.140;7.614;2023-02-24T09:04:52;93.17;;;40.63;;
5147;SDS011;2592;48.140;7.614;2023-02-24T09:07:19;96.00;;;44.13;;
5147;SDS011;2592;48.140;7.614;2023-02-24T09:09:46;95.00;;;43.03;;
5147;SDS011;2592;48.140;7.614;2023-02-24T09:12:13;84.43;;;40.97;;
5147;SDS011;2592;48.140;7.614;2023-02-24T09:14:46;88.60;;;40.43;;
5147;SDS011;2592;48.140;7.614;2023-02-24T09:17:14;83.07;;;40.70;;
5147;SDS011;2592;48.140;7.614;2023-02-24T09:19:45;72.30;;;39.30;;
5147;SDS011;2592;48.140;7.614;2023-02-24T09:22:32;70.70;;;34.93;;
5147;SDS011;2592;48.140;7.614;2023-02-24T09:25:06;75.23;;;43.27;;
5147;SDS011;2592;48.140;7.614;2023-02-24T09:27:48;70.70;;;37.27;;
5147;SDS011;2592;48.140;7.614;2023-02-24T09:30:19;71.93;;;37.50;;
5147;SDS011;2592;48.140;7.614;2023-02-24T09:33:06;79.00;;;41.10;;
5147;SDS011;2592;48.140;7.614;2023-02-24T09:35:33;73.93;;;37.20;;
5147;SDS011;2592;48.140;7.614;2023-02-24T09:38:01;64.87;;;36.60;;
5147;SDS011;2592;48.140;7.614;2023-02-24T09:40:30;62.27;;;36.17;;
5147;SDS011;2592;48.140;7.614;2023-02-24T09:43:13;62.40;;;35.70;;
5147;SDS011;2592;48.140;7.614;2023-02-24T09:45:44;63.07;;;35.00;;
5147;SDS011;2592;48.140;7.614;2023-02-24T09:48:19;57.40;;;33.17;;
5147;SDS011;2592;48.140;7.614;2023-02-24T09:50:48;67.73;;;37.13;;
5147;SDS011;2592;48.140;7.614;2023-02-24T09:53:28;69.17;;;36.53;;
5147;SDS011;2592;48.140;7.614;2023-02-24T09:56:04;60.60;;;35.90;;
5147;SDS011;2592;48.140;7.614;2023-02-24T09:58:35;66.50;;;38.33;;
5147;SDS011;2592;48.140;7.614;2023-02-24T10:01:05;59.43;;;34.67;;
5147;SDS011;2592;48.140;7.614;2023-02-24T10:03:47;70.20;;;39.27;;
5147;SDS011;2592;48.140;7.614;2023-02-24T10:06:17;56.20;;;33.30;;
5147;SDS011;2592;48.140;7.614;2023-02-24T10:08:46;58.00;;;34.60;;
5147;SDS011;2592;48.140;7.614;2023-02-24T10:11:14;58.53;;;35.83;;
5147;SDS011;2592;48.140;7.614;2023-02-24T10:13:53;78.83;;;45.07;;
5147;SDS011;2592;48.140;7.614;2023-02-24T10:16:22;78.00;;;43.83;;
5147;SDS011;2592;48.140;7.614;2023-02-24T10:18:50;46.30;;;26.17;;
5147;SDS011;2592;48.140;7.614;2023-02-24T10:21:26;61.20;;;37.27;;
5147;SDS011;2592;48.140;7.614;2023-02-24T10:24:01;63.00;;;38.00;;
5147;SDS011;2592;48.140;7.614;2023-02-24T10:26:31;61.33;;;34.30;;
5147;SDS011;2592;48.140;7.614;2023-02-24T10:29:11;62.70;;;33.70;;
5147;SDS011;2592;48.140;7.614;2023-02-24T10:31:47;60.90;;;35.73;;
5147;SDS011;2592;48.140;7.614;2023-02-24T10:34:23;60.10;;;35.47;;
5147;SDS011;2592;48.140;7.614;2023-02-24T10:36:55;62.57;;;37.27;;
5147;SDS011;2592;48.140;7.614;2023-02-24T10:39:25;51.77;;;33.67;;
5147;SDS011;2592;48.140;7.614;2023-02-24T10:41:55;63.43;;;34.30;;
5147;SDS011;2592;48.140;7.614;2023-02-24T10:44:22;67.03;;;35.50;;
5147;SDS011;2592;48.140;7.614;2023-02-24T10:46:59;56.60;;;33.40;;
5147;SDS011;2592;48.140;7.614;2023-02-24T10:49:39;59.90;;;36.30;;
5147;SDS011;2592;48.140;7.614;2023-02-24T10:52:09;59.57;;;33.90;;
5147;SDS011;2592;48.140;7.614;2023-02-24T10:54:53;53.77;;;33.13;;
5147;SDS011;2592;48.140;7.614;2023-02-24T10:57:29;56.43;;;33.90;;
5147;SDS011;2592;48.140;7.614;2023-02-24T11:00:04;60.70;;;33.20;;
5147;SDS011;2592;48.140;7.614;2023-02-24T11:02:56;57.57;;;33.97;;
5147;SDS011;2592;48.140;7.614;2023-02-24T11:05:39;60.77;;;34.10;;
5147;SDS011;2592;48.140;7.614;2023-02-24T11:08:33;57.43;;;32.50;;
5147;SDS011;2592;48.140;7.614;2023-02-24T11:11:18;51.13;;;30.47;;
5147;SDS011;2592;48.140;7.614;2023-02-24T11:13:50;53.80;;;31.17;;
5147;SDS011;2592;48.140;7.614;2023-02-24T11:16:44;47.37;;;30.67;;
5147;SDS011;2592;48.140;7.614;2023-02-24T11:19:29;43.83;;;29.83;;
5147;SDS011;2592;48.140;7.614;2023-02-24T11:21:58;48.33;;;29.10;;
5147;SDS011;2592;48.140;7.614;2023-02-24T11:24:25;53.80;;;27.97;;
5147;SDS011;2592;48.140;7.614;2023-02-24T11:26:52;61.37;;;31.20;;
5147;SDS011;2592;48.140;7.614;2023-02-24T11:29:28;50.00;;;30.50;;
5147;SDS011;2592;48.140;7.614;2023-02-24T11:31:59;37.97;;;22.83;;
5147;SDS011;2592;48.140;7.614;2023-02-24T11:34:31;44.63;;;23.57;;
5147;SDS011;2592;48.140;7.614;2023-02-24T11:37:02;33.80;;;20.07;;
5147;SDS011;2592;48.140;7.614;2023-02-24T11:42:19;43.20;;;22.10;;
5147;SDS011;2592;48.140;7.614;2023-02-24T11:44:51;37.27;;;22.40;;
5147;SDS011;2592;48.140;7.614;2023-02-24T11:47:21;38.57;;;22.57;;
5147;SDS011;2592;48.140;7.614;2023-02-24T11:49:49;44.60;;;19.87;;
5147;SDS011;2592;48.140;7.614;2023-02-24T11:52:18;35.37;;;19.37;;
5147;SDS011;2592;48.140;7.614;2023-02-24T11:54:47;26.33;;;17.87;;
5147;SDS011;2592;48.140;7.614;2023-02-24T11:57:15;37.13;;;23.03;;
5147;SDS011;2592;48.140;7.614;2023-02-24T11:59:43;33.20;;;19.47;;
5147;SDS011;2592;48.140;7.614;2023-02-24T12:02:13;32.07;;;20.17;;
5147;SDS011;2592;48.140;7.614;2023-02-24T12:04:42;37.63;;;18.93;;
5147;SDS011;2592;48.140;7.614;2023-02-24T12:07:13;28.37;;;17.23;;
5147;SDS011;2592;48.140;7.614;2023-02-24T12:09:45;24.63;;;16.63;;
5147;SDS011;2592;48.140;7.614;2023-02-24T12:12:15;35.70;;;18.70;;
5147;SDS011;2592;48.140;7.614;2023-02-24T12:14:44;34.50;;;19.07;;
5147;SDS011;2592;48.140;7.614;2023-02-24T12:17:14;28.93;;;17.67;;
5147;SDS011;2592;48.140;7.614;2023-02-24T12:19:44;37.87;;;20.33;;
5147;SDS011;2592;48.140;7.614;2023-02-24T12:22:15;23.97;;;15.57;;
5147;SDS011;2592;48.140;7.614;2023-02-24T12:24:43;29.97;;;17.13;;
5147;SDS011;2592;48.140;7.614;2023-02-24T12:27:14;26.93;;;17.80;;
5147;SDS011;2592;48.140;7.614;2023-02-24T12:29:53;34.53;;;18.73;;
5147;SDS011;2592;48.140;7.614;2023-02-24T12:32:30;29.57;;;16.70;;
5147;SDS011;2592;48.140;7.614;2023-02-24T12:35:00;24.33;;;15.20;;
5147;SDS011;2592;48.140;7.614;2023-02-24T12:37:38;30.40;;;17.20;;
5147;SDS011;2592;48.140;7.614;2023-02-24T12:40:12;28.27;;;16.00;;
5147;SDS011;2592;48.140;7.614;2023-02-24T12:42:43;30.10;;;16.87;;
5147;SDS011;2592;48.140;7.614;2023-02-24T12:45:12;31.90;;;16.07;;
5147;SDS011;2592;48.140;7.614;2023-02-24T12:47:43;30.50;;;16.77;;
5147;SDS011;2592;48.140;7.614;2023-02-24T12:52:57;33.63;;;18.23;;
5147;SDS011;2592;48.140;7.614;2023-02-24T12:55:25;22.17;;;15.60;;
5147;SDS011;2592;48.140;7.614;2023-02-24T12:57:58;26.20;;;15.27;;
5147;SDS011;2592;48.140;7.614;2023-02-24T13:00:29;25.73;;;16.03;;
5147;SDS011;2592;48.140;7.614;2023-02-24T13:02:59;32.43;;;16.17;;
5147;SDS011;2592;48.140;7.614;2023-02-24T13:05:28;33.33;;;20.40;;
5147;SDS011;2592;48.140;7.614;2023-02-24T13:08:06;24.70;;;14.33;;
5147;SDS011;2592;48.140;7.614;2023-02-24T13:10:35;25.63;;;14.87;;
5147;SDS011;2592;48.140;7.614;2023-02-24T13:13:06;37.50;;;16.10;;
5147;SDS011;2592;48.140;7.614;2023-02-24T13:15:35;27.50;;;14.70;;
5147;SDS011;2592;48.140;7.614;2023-02-24T13:18:02;25.97;;;15.60;;
5147;SDS011;2592;48.140;7.614;2023-02-24T13:20:29;38.87;;;15.57;;
5147;SDS011;2592;48.140;7.614;2023-02-24T13:22:56;31.87;;;14.93;;
5147;SDS011;2592;48.140;7.614;2023-02-24T13:25:26;27.83;;;14.90;;
5147;SDS011;2592;48.140;7.614;2023-02-24T13:27:55;30.87;;;15.17;;
5147;SDS011;2592;48.140;7.614;2023-02-24T13:30:26;27.57;;;16.03;;
5147;SDS011;2592;48.140;7.614;2023-02-24T13:33:00;29.60;;;15.17;;
5147;SDS011;2592;48.140;7.614;2023-02-24T13:35:29;29.17;;;14.70;;
5147;SDS011;2592;48.140;7.614;2023-02-24T13:38:05;29.67;;;15.00;;
5147;SDS011;2592;48.140;7.614;2023-02-24T13:40:32;28.10;;;14.70;;
5147;SDS011;2592;48.140;7.614;2023-02-24T13:42:59;23.77;;;14.80;;
5147;SDS011;2592;48.140;7.614;2023-02-24T13:45:27;31.10;;;15.57;;
5147;SDS011;2592;48.140;7.614;2023-02-24T13:50:36;28.97;;;14.10;;
5147;SDS011;2592;48.140;7.614;2023-02-24T13:53:10;33.90;;;14.70;;
5147;SDS011;2592;48.140;7.614;2023-02-24T13:58:28;24.20;;;13.63;;
5147;SDS011;2592;48.140;7.614;2023-02-24T14:01:01;25.97;;;14.50;;
5147;SDS011;2592;48.140;7.614;2023-02-24T14:03:30;35.37;;;14.83;;
5147;SDS011;2592;48.140;7.614;2023-02-24T14:05:57;28.17;;;16.43;;
5147;SDS011;2592;48.140;7.614;2023-02-24T14:08:24;24.07;;;14.30;;
5147;SDS011;2592;48.140;7.614;2023-02-24T14:10:53;31.87;;;15.27;;
5147;SDS011;2592;48.140;7.614;2023-02-24T14:13:24;28.10;;;15.40;;
5147;SDS011;2592;48.140;7.614;2023-02-24T14:15:53;31.60;;;16.00;;
5147;SDS011;2592;48.140;7.614;2023-02-24T14:18:23;33.17;;;15.43;;
5147;SDS011;2592;48.140;7.614;2023-02-24T14:20:50;42.43;;;20.63;;
5147;SDS011;2592;48.140;7.614;2023-02-24T14:23:19;43.97;;;19.60;;
5147;SDS011;2592;48.140;7.614;2023-02-24T14:25:46;31.27;;;16.33;;
5147;SDS011;2592;48.140;7.614;2023-02-24T14:28:12;26.93;;;14.67;;
5147;SDS011;2592;48.140;7.614;2023-02-24T14:30:44;29.70;;;14.67;;
5147;SDS011;2592;48.140;7.614;2023-02-24T14:33:26;24.13;;;16.30;;
5147;SDS011;2592;48.140;7.614;2023-02-24T14:35:54;29.60;;;16.00;;
5147;SDS011;2592;48.140;7.614;2023-02-24T14:38:31;45.60;;;16.73;;
5147;SDS011;2592;48.140;7.614;2023-02-24T14:40:58;27.57;;;15.13;;
5147;SDS011;2592;48.140;7.614;2023-02-24T14:43:25;30.80;;;18.17;;
5147;SDS011;2592;48.140;7.614;2023-02-24T14:45:52;28.70;;;16.87;;
5147;SDS011;2592;48.140;7.614;2023-02-24T14:48:22;26.97;;;15.53;;
5147;SDS011;2592;48.140;7.614;2023-02-24T14:50:48;29.80;;;17.20;;
5147;SDS011;2592;48.140;7.614;2023-02-24T14:53:16;28.00;;;14.13;;
5147;SDS011;2592;48.140;7.614;2023-02-24T14:55:45;30.47;;;15.13;;
5147;SDS011;2592;48.140;7.614;2023-02-24T14:58:12;26.97;;;14.90;;
5147;SDS011;2592;48.140;7.614;2023-02-24T15:00:42;28.80;;;16.43;;
5147;SDS011;2592;48.140;7.614;2023-02-24T15:03:13;31.53;;;14.43;;
5147;SDS011;2592;48.140;7.614;2023-02-24T15:05:42;27.27;;;15.13;;
5147;SDS011;2592;48.140;7.614;2023-02-24T15:08:18;31.03;;;15.37;;
5147;SDS011;2592;48.140;7.614;2023-02-24T15:10:48;28.27;;;15.90;;
5147;SDS011;2592;48.140;7.614;2023-02-24T15:13:15;25.67;;;14.73;;
5147;SDS011;2592;48.140;7.614;2023-02-24T15:15:43;25.83;;;15.07;;
5147;SDS011;2592;48.140;7.614;2023-02-24T15:18:13;26.67;;;14.10;;
5147;SDS011;2592;48.140;7.614;2023-02-24T15:20:41;26.57;;;14.47;;
5147;SDS011;2592;48.140;7.614;2023-02-24T15:23:21;25.73;;;14.57;;
5147;SDS011;2592;48.140;7.614;2023-02-24T15:25:50;25.33;;;13.70;;